createdAt,value
2018-07-20T00:00:35.745Z,20.30
2018-07-20T00:03:04.951Z,20.30
2018-07-20T00:08:01.558Z,20.20
2018-07-20T00:12:57.998Z,20.20
2018-07-20T00:15:26.384Z,20.20
2018-07-20T00:17:57.936Z,20.10
2018-07-20T00:20:26.406Z,20.10
2018-07-20T00:22:54.905Z,20.40
2018-07-20T00:25:34.203Z,20.20
2018-07-20T00:28:02.611Z,20.10
2018-07-20T00:30:31.000Z,20.00
2018-07-20T00:33:03.300Z,19.80
2018-07-20T00:38:09.632Z,19.80
2018-07-20T00:40:38.038Z,19.70
2018-07-20T00:43:07.592Z,20.10
2018-07-20T00:48:05.904Z,19.80
2018-07-20T00:50:34.256Z,19.70
2018-07-20T00:53:04.016Z,20.00
2018-07-20T00:55:32.389Z,19.90
2018-07-20T00:58:00.821Z,19.70
2018-07-20T01:02:57.228Z,19.50
2018-07-20T01:05:25.690Z,19.40
2018-07-20T01:07:54.054Z,19.30
2018-07-20T01:10:22.437Z,19.20
2018-07-20T01:12:54.546Z,19.20
2018-07-20T01:15:22.900Z,19.30
2018-07-20T01:17:51.255Z,19.20
2018-07-20T01:20:19.581Z,19.10
2018-07-20T01:22:58.294Z,19.10
2018-07-20T01:25:26.603Z,19.10
2018-07-20T01:30:23.335Z,19.40
2018-07-20T01:32:51.725Z,19.30
2018-07-20T01:35:20.933Z,19.30
2018-07-20T01:37:50.593Z,19.20
2018-07-20T01:40:19.025Z,19.50
2018-07-20T01:42:50.125Z,19.30
2018-07-20T01:45:18.918Z,19.20
2018-07-20T01:47:47.273Z,19.20
2018-07-20T01:50:15.628Z,19.10
2018-07-20T01:55:12.110Z,19.10
2018-07-20T01:57:40.426Z,19.00
2018-07-20T02:00:08.868Z,18.90
2018-07-20T02:02:37.224Z,18.90
2018-07-20T02:05:06.258Z,19.20
2018-07-20T02:07:34.635Z,19.10
2018-07-20T02:10:02.981Z,19.20
2018-07-20T02:12:31.444Z,19.00
2018-07-20T02:17:29.379Z,18.80
2018-07-20T02:19:57.736Z,18.70
2018-07-20T02:22:26.148Z,18.70
2018-07-20T02:24:54.574Z,18.70
2018-07-20T02:29:50.998Z,18.60
2018-07-20T02:32:19.350Z,18.60
2018-07-20T02:34:48.546Z,18.60
2018-07-20T02:37:16.930Z,18.90
2018-07-20T02:39:48.909Z,18.70
2018-07-20T02:42:17.354Z,18.50
2018-07-20T02:44:45.730Z,18.50
2018-07-20T02:47:14.442Z,18.40
2018-07-20T02:49:42.799Z,18.40
2018-07-20T02:52:12.114Z,18.40
2018-07-20T02:54:43.233Z,18.40
2018-07-20T02:57:11.563Z,18.40
2018-07-20T02:59:41.599Z,18.30
2018-07-20T03:07:06.497Z,18.30
2018-07-20T03:09:36.152Z,18.30
2018-07-20T03:14:43.930Z,18.20
2018-07-20T03:17:12.328Z,18.10
2018-07-20T03:19:41.156Z,18.10
2018-07-20T03:22:19.874Z,18.10
2018-07-20T03:24:49.150Z,18.00
2018-07-20T03:29:45.593Z,18.00
2018-07-20T03:32:14.883Z,18.00
2018-07-20T03:34:43.263Z,18.00
2018-07-20T03:37:13.006Z,18.00
2018-07-20T03:42:10.996Z,18.30
2018-07-20T03:47:07.558Z,18.00
2018-07-20T03:52:08.862Z,18.30
2018-07-20T03:54:47.825Z,18.20
2018-07-20T03:59:44.861Z,18.10
2018-07-20T04:02:13.359Z,18.40
2018-07-20T04:04:42.083Z,18.20
2018-07-20T04:07:10.440Z,18.10
2018-07-20T04:12:17.805Z,18.00
2018-07-20T04:14:46.176Z,18.00
2018-07-20T04:17:15.925Z,18.00
2018-07-20T04:19:45.152Z,18.00
2018-07-20T04:24:41.773Z,18.00
2018-07-20T04:27:10.218Z,17.90
2018-07-20T04:29:38.566Z,18.00
2018-07-20T04:34:57.848Z,18.20
2018-07-20T04:39:54.280Z,18.40
2018-07-20T04:42:22.668Z,18.30
2018-07-20T04:44:51.065Z,18.20
2018-07-20T04:49:47.557Z,18.10
2018-07-20T04:52:16.286Z,18.10
2018-07-20T04:54:45.921Z,18.40
2018-07-20T04:57:14.365Z,18.30
2018-07-20T04:59:42.732Z,18.20
2018-07-20T05:02:11.352Z,18.20
2018-07-20T05:04:39.772Z,18.20
2018-07-20T05:07:08.638Z,18.50
2018-07-20T05:09:37.088Z,18.40
2018-07-20T05:12:05.878Z,18.30
2018-07-20T05:17:02.450Z,18.30
2018-07-20T05:19:30.756Z,18.30
2018-07-20T05:21:59.142Z,18.30
2018-07-20T05:24:27.431Z,18.30
2018-07-20T05:26:55.796Z,18.30
2018-07-20T05:29:24.172Z,18.30
2018-07-20T05:31:52.514Z,18.40
2018-07-20T05:36:48.977Z,18.40
2018-07-20T05:39:17.301Z,18.40
2018-07-20T05:41:45.649Z,18.40
2018-07-20T05:44:14.991Z,18.40
2018-07-20T05:46:43.384Z,18.40
2018-07-20T05:49:11.694Z,18.40
2018-07-20T05:51:40.356Z,18.70
2018-07-20T05:56:37.591Z,18.60
2018-07-20T05:59:05.957Z,18.60
2018-07-20T06:01:34.306Z,18.60
2018-07-20T06:04:02.633Z,18.60
2018-07-20T06:06:30.978Z,18.60
2018-07-20T06:08:59.320Z,18.60
2018-07-20T06:16:29.941Z,18.60
2018-07-20T06:18:58.353Z,18.70
2018-07-20T06:23:56.259Z,18.80
2018-07-20T06:26:24.623Z,18.90
2018-07-20T06:28:52.978Z,18.90
2018-07-20T06:31:21.426Z,18.90
2018-07-20T06:33:49.767Z,19.00
2018-07-20T06:38:46.191Z,19.00
2018-07-20T06:41:14.523Z,19.00
2018-07-20T06:43:42.916Z,19.10
2018-07-20T06:46:11.278Z,19.10
2018-07-20T06:48:39.565Z,19.20
2018-07-20T06:51:09.906Z,19.20
2018-07-20T06:53:39.932Z,19.20
2018-07-20T06:56:08.337Z,19.30
2018-07-20T06:58:38.588Z,19.30
2018-07-20T07:01:10.888Z,19.40
2018-07-20T07:08:43.089Z,19.60
2018-07-20T07:11:16.367Z,19.60
2018-07-20T07:13:47.443Z,19.60
2018-07-20T07:21:18.044Z,19.80
2018-07-20T07:26:26.155Z,20.10
2018-07-20T07:28:56.022Z,20.20
2018-07-20T07:31:26.448Z,20.30
2018-07-20T07:33:56.423Z,20.40
2018-07-20T07:36:26.581Z,20.40
2018-07-20T07:38:55.795Z,20.50
2018-07-20T07:41:24.885Z,20.50
2018-07-20T07:43:55.413Z,20.50
2018-07-20T07:46:24.305Z,20.50
2018-07-20T07:48:56.257Z,20.50
2018-07-20T07:51:28.036Z,20.60
2018-07-20T07:53:56.743Z,20.90
2018-07-20T07:58:55.087Z,20.70
2018-07-20T08:01:23.531Z,20.70
2018-07-20T08:03:52.032Z,20.70
2018-07-20T08:06:20.467Z,20.80
2018-07-20T08:08:48.870Z,20.80
2018-07-20T08:11:17.356Z,20.80
2018-07-20T08:13:45.775Z,20.90
2018-07-20T08:16:14.232Z,20.90
2018-07-20T08:18:42.676Z,21.00
2018-07-20T08:23:39.215Z,21.10
2018-07-20T08:31:03.946Z,21.70
2018-07-20T08:33:33.269Z,21.80
2018-07-20T08:38:29.903Z,21.70
2018-07-20T08:43:26.641Z,21.90
2018-07-20T08:45:55.050Z,21.70
2018-07-20T08:53:20.032Z,21.70
2018-07-20T08:55:48.942Z,21.70
2018-07-20T08:58:18.167Z,22.10
2018-07-20T09:00:46.634Z,22.00
2018-07-20T09:03:15.082Z,22.00
2018-07-20T09:05:43.584Z,22.00
2018-07-20T09:08:12.057Z,21.90
2018-07-20T09:10:40.565Z,22.00
2018-07-20T09:13:11.816Z,22.00
2018-07-20T09:15:42.154Z,22.10
2018-07-20T09:18:10.624Z,22.10
2018-07-20T09:20:39.766Z,22.20
2018-07-20T09:23:11.151Z,22.60
2018-07-20T09:25:42.270Z,22.50
2018-07-20T09:28:10.585Z,22.40
2018-07-20T09:30:40.228Z,22.50
2018-07-20T09:33:10.362Z,22.50
2018-07-20T09:35:40.363Z,22.50
2018-07-20T09:40:37.099Z,22.60
2018-07-20T09:49:06.301Z,22.80
2018-07-20T09:51:34.781Z,22.80
2018-07-20T09:54:03.113Z,22.80
2018-07-20T09:56:31.562Z,22.90
2018-07-20T09:59:00.824Z,23.00
2018-07-20T10:01:29.307Z,23.00
2018-07-20T10:03:57.796Z,23.10
2018-07-20T10:06:26.342Z,23.10
2018-07-20T10:13:51.103Z,23.30
2018-07-20T10:16:19.530Z,23.40
2018-07-20T10:21:16.169Z,23.50
2018-07-20T10:23:44.611Z,23.50
2018-07-20T10:26:13.036Z,23.60
2018-07-20T10:28:41.486Z,23.60
2018-07-20T10:31:09.905Z,23.70
2018-07-20T10:33:38.294Z,23.70
2018-07-20T10:38:34.866Z,23.80
2018-07-20T10:41:03.304Z,23.80
2018-07-20T10:43:31.790Z,23.90
2018-07-20T10:46:00.177Z,23.90
2018-07-20T10:53:25.013Z,24.20
2018-07-20T10:55:53.415Z,24.20
2018-07-20T11:00:50.054Z,24.30
2018-07-20T11:05:46.668Z,24.30
2018-07-20T11:08:15.096Z,24.40
2018-07-20T11:10:43.520Z,24.50
2018-07-20T11:13:11.978Z,24.90
2018-07-20T11:15:40.604Z,25.10
2018-07-20T11:18:09.021Z,25.20
2018-07-20T11:20:37.512Z,25.00
2018-07-20T11:23:05.960Z,25.00
2018-07-20T11:28:02.545Z,25.10
2018-07-20T11:32:59.147Z,25.30
2018-07-20T11:35:27.589Z,25.30
2018-07-20T11:37:56.023Z,25.70
2018-07-20T11:40:24.463Z,26.00
2018-07-20T11:42:52.944Z,25.80
2018-07-20T11:45:21.404Z,25.70
2018-07-20T11:47:49.864Z,25.80
2018-07-20T11:55:25.139Z,25.90
2018-07-20T12:00:21.703Z,25.90
2018-07-20T12:05:18.469Z,26.40
2018-07-20T12:07:46.958Z,26.30
2018-07-20T12:10:15.463Z,26.30
2018-07-20T12:12:43.946Z,26.40
2018-07-20T12:15:12.415Z,26.50
2018-07-20T12:17:40.892Z,27.00
2018-07-20T12:20:09.305Z,27.00
2018-07-20T12:22:37.800Z,26.90
2018-07-20T12:25:06.321Z,27.00
2018-07-20T12:27:34.833Z,27.40
2018-07-20T12:30:04.584Z,27.40
2018-07-20T12:39:57.535Z,32.00
2018-07-20T12:42:26.009Z,35.80
2018-07-20T12:47:22.585Z,38.40
2018-07-20T12:49:51.047Z,39.30
2018-07-20T12:52:19.454Z,40.00
2018-07-20T12:54:47.942Z,40.50
2018-07-20T12:57:16.506Z,41.00
2018-07-20T12:59:44.975Z,41.40
2018-07-20T13:02:14.766Z,41.80
2018-07-20T13:04:43.232Z,42.20
2018-07-20T13:09:44.796Z,43.70
2018-07-20T13:14:41.812Z,44.40
2018-07-20T13:17:10.289Z,44.60
2018-07-20T13:19:38.711Z,45.00
2018-07-20T13:24:35.429Z,46.20
2018-07-20T13:27:03.892Z,46.40
2018-07-20T13:29:32.352Z,46.60
2018-07-20T13:34:28.982Z,47.30
2018-07-20T13:41:53.775Z,48.70
2018-07-20T13:44:22.264Z,48.70
2018-07-20T13:46:50.688Z,48.70
2018-07-20T13:51:47.496Z,49.50
2018-07-20T13:54:16.009Z,49.60
2018-07-20T13:56:47.096Z,49.80
2018-07-20T13:59:15.351Z,50.00
2018-07-20T14:06:40.342Z,50.30
2018-07-20T14:09:09.968Z,50.20
2018-07-20T14:11:38.704Z,50.10
2018-07-20T14:14:07.535Z,50.00
2018-07-20T14:16:36.078Z,49.90
2018-07-20T14:19:04.583Z,50.20
2018-07-20T14:21:33.045Z,51.20
2018-07-20T14:24:01.580Z,50.70
2018-07-20T14:28:58.261Z,51.00
2018-07-20T14:31:26.771Z,50.60
2018-07-20T14:33:55.174Z,50.20
2018-07-20T14:36:23.874Z,49.70
2018-07-20T14:38:52.361Z,49.70
2018-07-20T14:41:20.804Z,50.10
2018-07-20T14:43:49.203Z,50.60
2018-07-20T14:46:17.757Z,50.80
2018-07-20T14:48:46.159Z,50.80
2018-07-20T14:51:14.685Z,51.80
2018-07-20T14:53:43.336Z,51.50
2018-07-20T14:56:14.926Z,51.90
2018-07-20T14:58:43.348Z,51.10
2018-07-20T15:01:11.839Z,51.50
2018-07-20T15:03:40.271Z,51.00
2018-07-20T15:06:08.714Z,50.40
2018-07-20T15:08:37.245Z,50.30
2018-07-20T15:11:05.627Z,50.20
2018-07-20T15:13:34.060Z,50.10
2018-07-20T15:16:02.511Z,49.80
2018-07-20T15:18:30.984Z,49.90
2018-07-20T15:20:59.502Z,49.70
2018-07-20T15:23:27.949Z,49.20
2018-07-20T15:25:56.511Z,49.20
2018-07-20T15:28:24.988Z,49.10
2018-07-20T15:30:53.467Z,48.90
2018-07-20T15:33:21.931Z,48.20
2018-07-20T15:35:50.327Z,47.80
2018-07-20T15:38:18.784Z,47.40
2018-07-20T15:40:47.340Z,47.30
2018-07-20T15:43:15.846Z,46.80
2018-07-20T15:48:12.508Z,46.10
2018-07-20T15:53:37.678Z,45.90
2018-07-20T15:55:37.624Z,45.60
2018-07-20T15:58:06.158Z,45.70
2018-07-20T16:05:30.922Z,45.70
2018-07-20T16:08:01.652Z,44.40
2018-07-20T16:10:33.356Z,43.30
2018-07-20T16:13:01.830Z,42.80
2018-07-20T16:15:31.928Z,42.10
2018-07-20T16:22:56.506Z,42.00
2018-07-20T16:25:24.905Z,42.20
2018-07-20T16:27:53.279Z,42.40
2018-07-20T16:30:21.675Z,42.60
2018-07-20T16:37:46.296Z,42.10
2018-07-20T16:42:46.856Z,41.20
2018-07-20T16:47:43.358Z,41.00
2018-07-20T16:50:11.754Z,40.60
2018-07-20T16:52:40.121Z,40.30
2018-07-20T16:55:08.415Z,39.80
2018-07-20T16:57:36.771Z,39.40
2018-07-20T17:00:06.349Z,38.90
2018-07-20T17:02:34.781Z,39.20
2018-07-20T17:05:03.318Z,38.90
2018-07-20T17:07:31.718Z,38.80
2018-07-20T17:10:00.140Z,38.60
2018-07-20T17:14:56.715Z,38.40
2018-07-20T17:17:26.081Z,38.30
2018-07-20T17:19:54.397Z,38.10
2018-07-20T17:22:24.300Z,38.00
2018-07-20T17:24:52.687Z,38.30
2018-07-20T17:29:52.935Z,37.60
2018-07-20T17:32:21.277Z,37.60
2018-07-20T17:34:49.899Z,37.70
2018-07-20T17:37:18.416Z,37.30
2018-07-20T17:39:46.790Z,36.90
2018-07-20T17:42:15.131Z,36.50
2018-07-20T17:47:11.553Z,36.20
2018-07-20T17:49:39.895Z,35.80
2018-07-20T17:52:08.252Z,35.50
2018-07-20T17:54:36.578Z,35.20
2018-07-20T17:57:04.974Z,35.10
2018-07-20T17:59:33.354Z,34.90
2018-07-20T18:04:29.731Z,34.40
2018-07-20T18:06:58.095Z,34.20
2018-07-20T18:09:26.472Z,33.90
2018-07-20T18:14:23.040Z,33.50
2018-07-20T18:16:51.769Z,33.30
2018-07-20T18:19:20.095Z,33.10
2018-07-20T18:29:12.806Z,32.60
2018-07-20T18:31:41.212Z,32.50
2018-07-20T18:34:09.586Z,32.20
2018-07-20T18:36:37.973Z,32.00
2018-07-20T18:39:08.708Z,31.90
2018-07-20T18:41:37.453Z,31.70
2018-07-20T18:46:33.990Z,31.30
2018-07-20T18:49:03.307Z,31.10
2018-07-20T18:53:59.764Z,30.60
2018-07-20T18:56:28.100Z,30.50
2018-07-20T18:58:56.492Z,30.20
2018-07-20T19:01:24.882Z,30.10
2018-07-20T19:06:21.358Z,29.80
2018-07-20T19:08:49.737Z,29.70
2018-07-20T19:11:18.127Z,30.00
2018-07-20T19:13:46.521Z,29.70
2018-07-20T19:16:14.879Z,29.40
2018-07-20T19:18:43.313Z,29.10
2018-07-20T19:21:11.752Z,28.90
2018-07-20T19:23:40.150Z,28.90
2018-07-20T19:26:08.810Z,28.80
2018-07-20T19:28:37.247Z,28.70
2018-07-20T19:31:05.955Z,28.50
2018-07-20T19:36:02.613Z,28.30
2018-07-20T19:43:27.429Z,28.00
2018-07-20T19:48:24.356Z,28.00
2018-07-20T19:50:53.120Z,27.80
2018-07-20T19:53:21.580Z,27.90
2018-07-20T19:55:50.268Z,27.70
2018-07-20T19:58:19.035Z,27.40
2018-07-20T20:03:15.659Z,27.00
2018-07-20T20:05:44.397Z,27.00
2018-07-20T20:08:15.520Z,26.80
2018-07-20T20:15:40.362Z,26.60
2018-07-20T20:18:08.716Z,26.50
2018-07-20T20:20:37.097Z,26.40
2018-07-20T20:23:05.471Z,26.30
2018-07-20T20:25:33.829Z,26.20
2018-07-20T20:28:02.561Z,26.10
2018-07-20T20:32:59.302Z,26.00
2018-07-20T20:37:55.849Z,25.70
2018-07-20T20:40:24.187Z,25.60
2018-07-20T20:42:52.529Z,25.50
2018-07-20T20:47:48.986Z,25.50
2018-07-20T20:50:17.364Z,25.40
2018-07-20T20:55:14.007Z,25.60
2018-07-20T20:57:43.393Z,25.40
2018-07-20T21:00:11.872Z,25.30
2018-07-20T21:02:40.227Z,25.20
2018-07-20T21:05:08.582Z,25.50
2018-07-20T21:07:37.010Z,25.60
2018-07-20T21:10:05.710Z,25.40
2018-07-20T21:15:02.740Z,25.10
2018-07-20T21:17:31.109Z,24.90
2018-07-20T21:20:00.055Z,24.90
2018-07-20T21:34:51.534Z,24.50
2018-07-20T21:37:19.995Z,24.50
2018-07-20T21:39:48.632Z,24.80
2018-07-20T21:44:45.116Z,24.40
2018-07-20T21:47:13.451Z,24.30
2018-07-20T21:49:43.209Z,24.20
2018-07-20T21:52:12.402Z,24.20
2018-07-20T21:54:40.756Z,24.10
2018-07-20T22:02:06.987Z,23.90
2018-07-20T22:04:35.774Z,23.80
2018-07-20T22:07:04.161Z,23.80
2018-07-20T22:09:32.461Z,23.70
2018-07-20T22:12:00.857Z,23.60
2018-07-20T22:14:29.289Z,23.50
2018-07-20T22:16:57.640Z,23.40
2018-07-20T22:19:26.119Z,23.40
2018-07-20T22:21:59.658Z,23.40
2018-07-20T22:24:48.391Z,23.30
2018-07-20T22:27:16.780Z,23.20
2018-07-20T22:37:06.058Z,22.90
2018-07-20T22:39:34.464Z,22.90
2018-07-20T22:42:03.131Z,22.90
2018-07-20T22:44:31.740Z,22.90
2018-07-20T22:47:00.060Z,22.80
2018-07-20T22:51:57.470Z,22.70
2018-07-20T22:54:25.853Z,23.00
2018-07-20T22:56:54.215Z,22.80
2018-07-20T22:59:24.905Z,22.70
2018-07-20T23:02:05.109Z,22.60
2018-07-20T23:04:35.729Z,22.60
2018-07-20T23:09:32.528Z,22.70
2018-07-20T23:12:00.924Z,22.60
2018-07-20T23:14:30.424Z,22.50
2018-07-20T23:16:58.744Z,22.40
2018-07-20T23:21:57.231Z,22.30
2018-07-20T23:26:54.941Z,22.20
2018-07-20T23:29:24.251Z,22.10
2018-07-20T23:34:22.090Z,22.00
2018-07-20T23:39:18.805Z,22.00
2018-07-20T23:41:47.144Z,21.90
2018-07-20T23:49:24.323Z,21.90
2018-07-20T23:55:30.365Z,22.10
2018-07-20T23:58:56.570Z,21.80
